createdAt,value
2023-02-05T00:03:35.330Z,995.28
2023-02-05T00:09:06.966Z,994.61
2023-02-05T00:14:39.216Z,995.12
2023-02-05T00:20:10.547Z,994.49
2023-02-05T00:25:42.275Z,995.59
2023-02-05T00:31:14.344Z,995.48
2023-02-05T00:36:45.558Z,995.53
2023-02-05T00:42:17.331Z,995.46
2023-02-05T00:47:55.472Z,995.67
2023-02-05T00:53:26.952Z,995.54
2023-02-05T00:58:58.853Z,995.17
2023-02-05T01:04:30.694Z,994.96
2023-02-05T01:10:02.190Z,994.99
2023-02-05T01:15:35.226Z,994.99
2023-02-05T01:21:05.725Z,994.97
2023-02-05T01:26:38.321Z,995.0
2023-02-05T01:32:09.571Z,995.03
2023-02-05T01:37:41.161Z,995.09
2023-02-05T01:43:12.675Z,994.79
2023-02-05T01:48:51.149Z,994.37
2023-02-05T01:54:22.633Z,994.87
2023-02-05T01:59:54.319Z,994.81
2023-02-05T02:05:47.227Z,994.76
2023-02-05T02:10:57.611Z,994.69
2023-02-05T02:16:29.905Z,994.63
2023-02-05T02:22:01.747Z,994.44
2023-02-05T02:27:32.923Z,994.39
2023-02-05T02:33:04.673Z,993.85
2023-02-05T02:38:37.236Z,994.11
2023-02-05T02:44:08.112Z,994.29
2023-02-05T02:49:44.174Z,994.47
2023-02-05T02:55:15.760Z,993.39
2023-02-05T03:00:48.827Z,993.43
2023-02-05T03:06:19.564Z,993.7
2023-02-05T03:11:51.057Z,994.15
2023-02-05T03:17:22.691Z,994.22
2023-02-05T03:22:54.842Z,993.06
2023-02-05T03:28:26.124Z,993.32
2023-02-05T03:33:58.111Z,993.36
2023-02-05T03:39:30.439Z,993.13
2023-02-05T03:45:01.323Z,993.54
2023-02-05T03:50:37.267Z,992.53
2023-02-05T03:56:09.546Z,993.18
2023-02-05T04:01:40.941Z,992.97
2023-02-05T04:07:12.967Z,992.77
2023-02-05T04:12:44.312Z,993.06
2023-02-05T04:18:15.999Z,992.75
2023-02-05T04:23:48.324Z,992.83
2023-02-05T04:29:19.726Z,993.09
2023-02-05T04:34:52.292Z,993.0
2023-02-05T04:40:23.360Z,993.01
2023-02-05T04:45:54.824Z,993.18
2023-02-05T04:51:33.024Z,993.15
2023-02-05T04:57:29.473Z,993.21
2023-02-05T05:03:01.389Z,993.23
2023-02-05T05:08:32.892Z,993.23
2023-02-05T05:14:04.721Z,993.41
2023-02-05T05:19:36.213Z,993.0
2023-02-05T05:25:07.949Z,992.78
2023-02-05T05:30:39.943Z,993.25
2023-02-05T05:36:11.391Z,993.58
2023-02-05T05:41:43.103Z,993.61
2023-02-05T05:47:14.718Z,992.44
2023-02-05T05:52:51.599Z,993.53
2023-02-05T05:58:22.591Z,993.4
2023-02-05T06:03:54.437Z,993.36
2023-02-05T06:09:26.120Z,993.42
2023-02-05T06:14:57.798Z,993.14
2023-02-05T06:20:29.536Z,993.04
2023-02-05T06:26:01.330Z,993.2
2023-02-05T06:31:33.263Z,993.37
2023-02-05T06:37:04.757Z,993.44
2023-02-05T06:42:36.572Z,993.55
2023-02-05T06:48:08.147Z,993.5
2023-02-05T06:53:44.308Z,993.62
2023-02-05T06:59:16.118Z,993.66
2023-02-05T07:04:47.907Z,993.57
2023-02-05T07:10:19.737Z,993.58
2023-02-05T07:15:51.480Z,993.82
2023-02-05T07:21:23.156Z,994.1
2023-02-05T07:26:54.818Z,994.13
2023-02-05T07:32:26.852Z,994.27
2023-02-05T07:37:58.248Z,994.46
2023-02-05T07:43:30.067Z,994.13
2023-02-05T07:49:02.366Z,994.11
2023-02-05T07:54:39.880Z,993.69
2023-02-05T08:00:11.740Z,993.64
2023-02-05T08:05:43.256Z,993.65
2023-02-05T08:11:14.929Z,994.25
2023-02-05T08:16:46.744Z,994.61
2023-02-05T08:22:18.403Z,995.14
2023-02-05T08:27:50.265Z,994.98
2023-02-05T08:33:21.825Z,994.86
2023-02-05T08:38:53.653Z,994.74
2023-02-05T08:44:25.191Z,995.25
2023-02-05T08:49:57.135Z,994.31
2023-02-05T08:55:34.235Z,993.79
2023-02-05T09:01:05.108Z,994.03
2023-02-05T09:06:36.586Z,994.27
2023-02-05T09:12:08.381Z,994.06
2023-02-05T09:17:40.173Z,994.55
2023-02-05T09:23:11.764Z,994.36
2023-02-05T09:28:43.576Z,993.97
2023-02-05T09:34:15.461Z,993.64
2023-02-05T09:40:22.294Z,993.75
2023-02-05T09:45:18.772Z,994.69
2023-02-05T09:50:50.701Z,993.67
2023-02-05T09:56:28.637Z,993.97
2023-02-05T10:02:00.547Z,995.33
2023-02-05T10:07:32.153Z,995.52
2023-02-05T10:13:04.161Z,995.3
2023-02-05T10:18:35.544Z,995.37
2023-02-05T10:24:07.452Z,995.48
2023-02-05T10:29:39.240Z,995.08
2023-02-05T10:40:43.064Z,995.41
2023-02-05T10:46:15.451Z,995.4
2023-02-05T10:51:47.191Z,994.22
2023-02-05T10:57:23.327Z,995.86
2023-02-05T11:02:55.131Z,995.66
2023-02-05T11:08:26.814Z,995.74
2023-02-05T11:13:58.740Z,995.33
2023-02-05T11:19:30.475Z,995.08
2023-02-05T11:25:02.082Z,995.55
2023-02-05T11:30:53.812Z,996.07
2023-02-05T11:36:05.573Z,995.66
2023-02-05T11:41:37.238Z,995.46
2023-02-05T11:47:08.902Z,995.47
2023-02-05T11:52:40.855Z,995.98
2023-02-05T11:58:37.526Z,996.33
2023-02-05T12:03:50.694Z,996.14
2023-02-05T12:09:22.612Z,996.05
2023-02-05T12:14:54.215Z,995.57
2023-02-05T12:20:25.887Z,994.58
2023-02-05T12:25:57.970Z,995.14
2023-02-05T12:31:29.551Z,994.25
2023-02-05T12:37:01.340Z,995.29
2023-02-05T12:42:32.990Z,995.33
2023-02-05T12:48:04.506Z,995.16
2023-02-05T12:53:39.324Z,995.04
2023-02-05T12:59:14.328Z,994.12
2023-02-05T13:04:46.100Z,993.85
2023-02-05T13:10:17.791Z,994.5
2023-02-05T13:15:49.477Z,994.09
2023-02-05T13:21:21.458Z,994.7
2023-02-05T13:26:53.301Z,994.05
2023-02-05T13:32:24.934Z,993.84
2023-02-05T13:37:57.044Z,993.68
2023-02-05T13:43:28.271Z,993.63
2023-02-05T13:49:00.150Z,993.5
2023-02-05T13:54:31.710Z,993.1
2023-02-05T14:00:07.894Z,993.06
2023-02-05T14:05:39.745Z,993.07
2023-02-05T14:11:11.272Z,992.61
2023-02-05T14:16:43.202Z,992.41
2023-02-05T14:22:14.710Z,992.81
2023-02-05T14:27:46.703Z,992.16
2023-02-05T14:33:18.524Z,992.94
2023-02-05T14:38:50.716Z,993.3
2023-02-05T14:44:22.336Z,993.7
2023-02-05T14:49:54.297Z,993.26
2023-02-05T14:55:25.825Z,993.39
2023-02-05T15:01:04.007Z,993.49
2023-02-05T15:06:35.810Z,993.42
2023-02-05T15:12:07.433Z,993.53
2023-02-05T15:17:39.355Z,993.37
2023-02-05T15:23:11.316Z,993.94
2023-02-05T15:28:42.922Z,994.43
2023-02-05T15:34:14.866Z,993.8
2023-02-05T15:39:46.263Z,993.75
2023-02-05T15:45:17.960Z,993.97
2023-02-05T15:50:49.836Z,993.67
2023-02-05T15:56:21.568Z,994.4
2023-02-05T16:01:59.753Z,994.54
2023-02-05T16:07:31.341Z,994.05
2023-02-05T16:13:03.140Z,994.11
2023-02-05T16:18:34.820Z,995.23
2023-02-05T16:24:06.597Z,995.27
2023-02-05T16:29:49.196Z,995.41
2023-02-05T16:35:10.172Z,994.87
2023-02-05T16:40:41.934Z,994.79
2023-02-05T16:46:14.099Z,994.84
2023-02-05T16:51:45.096Z,995.3
2023-02-05T16:57:16.948Z,995.29
2023-02-05T17:02:53.031Z,995.24
2023-02-05T17:08:24.808Z,995.65
2023-02-05T17:13:56.618Z,995.22
2023-02-05T17:19:28.357Z,995.61
2023-02-05T17:25:00.054Z,996.38
2023-02-05T17:30:31.818Z,997.01
2023-02-05T17:36:03.405Z,997.16
2023-02-05T17:41:35.482Z,997.1
2023-02-05T17:47:06.910Z,997.28
2023-02-05T17:52:38.834Z,997.09
2023-02-05T17:58:10.475Z,996.88
2023-02-05T18:03:46.491Z,997.21
2023-02-05T18:09:18.202Z,997.71
2023-02-05T18:14:49.906Z,997.32
2023-02-05T18:20:21.598Z,997.42
2023-02-05T18:25:53.756Z,997.21
2023-02-05T18:31:25.518Z,997.06
2023-02-05T18:36:56.964Z,996.98
2023-02-05T18:42:28.765Z,997.53
2023-02-05T18:48:00.303Z,997.02
2023-02-05T18:53:32.144Z,996.99
2023-02-05T18:59:03.940Z,997.32
2023-02-05T19:04:42.064Z,997.45
2023-02-05T19:10:13.724Z,997.86
2023-02-05T19:15:45.740Z,997.66
2023-02-05T19:21:17.181Z,997.72
2023-02-05T19:26:48.951Z,997.87
2023-02-05T19:32:20.810Z,997.76
2023-02-05T19:37:52.582Z,997.75
2023-02-05T19:43:24.232Z,997.35
2023-02-05T19:48:55.938Z,996.92
2023-02-05T19:54:28.118Z,997.25
2023-02-05T19:59:59.381Z,996.61
2023-02-05T20:05:35.622Z,997.09
2023-02-05T20:11:07.298Z,996.79
2023-02-05T20:16:39.085Z,997.47
2023-02-05T20:22:10.840Z,997.19
2023-02-05T20:27:42.625Z,997.21
2023-02-05T20:33:14.350Z,997.38
2023-02-05T20:38:45.819Z,997.08
2023-02-05T20:44:17.632Z,997.17
2023-02-05T20:49:49.343Z,996.9
2023-02-05T20:55:21.051Z,997.03
2023-02-05T21:00:53.127Z,997.22
2023-02-05T21:06:31.072Z,997.41
2023-02-05T21:12:02.981Z,997.4
2023-02-05T21:17:34.363Z,997.48
2023-02-05T21:23:06.109Z,997.71
2023-02-05T21:28:38.049Z,997.69
2023-02-05T21:34:09.769Z,997.36
2023-02-05T21:39:41.416Z,997.79
2023-02-05T21:45:13.731Z,997.69
2023-02-05T21:50:44.789Z,998.02
2023-02-05T21:56:16.879Z,998.2
2023-02-05T22:01:48.431Z,998.13
2023-02-05T22:07:25.101Z,998.11
2023-02-05T22:12:56.306Z,998.17
2023-02-05T22:18:27.970Z,998.51
2023-02-05T22:24:00.341Z,998.7
2023-02-05T22:29:31.607Z,998.38
2023-02-05T22:35:03.296Z,998.14
2023-02-05T22:40:35.209Z,998.63
2023-02-05T22:46:07.450Z,998.32
2023-02-05T22:51:38.599Z,998.45
2023-02-05T22:57:10.295Z,998.33
2023-02-05T23:02:42.050Z,998.79
2023-02-05T23:08:17.955Z,998.65
2023-02-05T23:13:49.774Z,998.87
2023-02-05T23:19:21.326Z,998.83
2023-02-05T23:24:53.295Z,999.16
2023-02-05T23:30:25.454Z,998.92
2023-02-05T23:35:56.636Z,998.97
2023-02-05T23:41:28.298Z,998.55
2023-02-05T23:47:00.264Z,998.74
2023-02-05T23:52:31.813Z,999.17
2023-02-05T23:58:03.904Z,998.83
